createdAt,value
2018-08-31T00:00:38.024Z,1.20
2018-08-31T00:01:38.015Z,1.30
2018-08-31T00:02:38.014Z,1.20
2018-08-31T00:03:38.006Z,1.30
2018-08-31T00:04:38.014Z,1.00
2018-08-31T00:05:37.998Z,1.50
2018-08-31T00:06:38.014Z,1.40
2018-08-31T00:07:37.985Z,1.30
2018-08-31T00:08:37.986Z,1.10
2018-08-31T00:09:37.978Z,1.30
2018-08-31T00:10:37.971Z,1.20
2018-08-31T00:11:37.963Z,1.30
2018-08-31T00:12:37.973Z,1.20
2018-08-31T00:13:37.961Z,1.40
2018-08-31T00:14:37.953Z,1.20
2018-08-31T00:15:37.954Z,1.40
2018-08-31T00:16:37.947Z,1.30
2018-08-31T00:17:37.947Z,1.30
2018-08-31T00:18:37.942Z,1.10
2018-08-31T00:19:37.939Z,1.10
2018-08-31T00:20:37.927Z,1.20
2018-08-31T00:21:37.943Z,1.20
2018-08-31T00:22:37.923Z,1.20
2018-08-31T00:23:37.914Z,1.30
2018-08-31T00:24:37.907Z,1.30
2018-08-31T00:25:37.903Z,1.30
2018-08-31T00:26:37.907Z,1.40
2018-08-31T00:27:37.893Z,1.20
2018-08-31T00:28:37.894Z,1.20
2018-08-31T00:29:37.894Z,1.30
2018-08-31T00:30:37.880Z,1.30
2018-08-31T00:31:37.878Z,1.20
2018-08-31T00:32:37.880Z,1.00
2018-08-31T00:33:37.871Z,1.00
2018-08-31T00:34:37.874Z,1.20
2018-08-31T00:35:37.860Z,1.20
2018-08-31T00:36:37.857Z,1.40
2018-08-31T00:37:37.854Z,1.30
2018-08-31T00:38:37.844Z,1.50
2018-08-31T00:39:37.846Z,1.60
2018-08-31T00:40:37.837Z,1.40
2018-08-31T00:41:37.837Z,1.20
2018-08-31T00:42:37.834Z,1.40
2018-08-31T00:43:37.851Z,1.10
2018-08-31T00:44:37.819Z,1.30
2018-08-31T00:45:37.821Z,1.20
2018-08-31T00:46:37.815Z,1.10
2018-08-31T00:47:37.817Z,1.20
2018-08-31T00:48:37.808Z,1.00
2018-08-31T00:49:37.818Z,1.30
2018-08-31T00:50:37.794Z,1.20
2018-08-31T00:51:37.793Z,1.30
2018-08-31T00:52:37.779Z,1.10
2018-08-31T00:53:37.775Z,1.10
2018-08-31T00:54:37.776Z,1.10
2018-08-31T00:55:37.774Z,1.30
2018-08-31T00:56:37.767Z,1.00
2018-08-31T00:57:37.763Z,1.40
2018-08-31T00:58:37.759Z,1.30
2018-08-31T00:59:37.767Z,1.20
2018-08-31T01:00:37.750Z,1.30
2018-08-31T01:01:37.754Z,1.20
2018-08-31T01:02:37.738Z,1.20
2018-08-31T01:03:37.740Z,1.30
2018-08-31T01:04:37.735Z,1.10
2018-08-31T01:05:37.728Z,1.20
2018-08-31T01:06:37.745Z,1.10
2018-08-31T01:07:37.712Z,1.20
2018-08-31T01:08:37.710Z,1.30
2018-08-31T01:09:37.713Z,1.40
2018-08-31T01:10:37.704Z,1.30
2018-08-31T01:11:37.699Z,1.30
2018-08-31T01:12:37.686Z,1.10
2018-08-31T01:13:37.692Z,1.10
2018-08-31T01:14:37.689Z,1.40
2018-08-31T01:15:37.678Z,1.30
2018-08-31T01:16:37.673Z,1.10
2018-08-31T01:17:37.673Z,1.20
2018-08-31T01:18:37.670Z,1.30
2018-08-31T01:19:37.660Z,1.20
2018-08-31T01:20:37.660Z,1.10
2018-08-31T01:21:37.653Z,1.30
2018-08-31T01:22:37.652Z,1.40
2018-08-31T01:23:37.645Z,1.30
2018-08-31T01:24:37.635Z,1.40
2018-08-31T01:25:37.635Z,1.20
2018-08-31T01:26:37.631Z,1.10
2018-08-31T01:27:37.625Z,1.30
2018-08-31T01:28:37.623Z,1.30
2018-08-31T01:29:37.620Z,1.10
2018-08-31T01:30:37.615Z,1.40
2018-08-31T01:31:37.614Z,1.30
2018-08-31T01:32:37.607Z,1.10
2018-08-31T01:33:37.608Z,1.40
2018-08-31T01:34:37.598Z,1.20
2018-08-31T01:35:37.588Z,1.50
2018-08-31T01:36:37.584Z,1.40
2018-08-31T01:37:37.590Z,1.50
2018-08-31T01:38:37.583Z,1.20
2018-08-31T01:39:37.575Z,1.30
2018-08-31T01:40:37.569Z,1.30
2018-08-31T01:41:37.565Z,1.40
2018-08-31T01:42:37.565Z,1.30
2018-08-31T01:43:37.558Z,1.20
2018-08-31T01:44:37.546Z,1.30
2018-08-31T01:45:37.550Z,1.30
2018-08-31T01:46:37.540Z,1.00
2018-08-31T01:47:37.538Z,1.00
2018-08-31T01:48:37.538Z,1.10
2018-08-31T01:49:37.539Z,1.20
2018-08-31T01:50:37.528Z,1.20
2018-08-31T01:51:37.530Z,1.00
2018-08-31T01:52:37.579Z,1.30
2018-08-31T01:53:37.514Z,1.30
2018-08-31T01:54:37.558Z,1.30
2018-08-31T01:55:37.495Z,1.20
2018-08-31T01:56:37.501Z,1.30
2018-08-31T01:57:37.489Z,1.30
2018-08-31T01:58:37.499Z,1.30
2018-08-31T01:59:37.500Z,1.30
2018-08-31T02:00:37.475Z,1.20
2018-08-31T02:01:37.477Z,1.20
2018-08-31T02:02:37.477Z,1.50
2018-08-31T02:03:37.459Z,1.00
2018-08-31T02:04:37.480Z,1.20
2018-08-31T02:05:37.466Z,1.10
2018-08-31T02:06:37.455Z,1.30
2018-08-31T02:07:37.454Z,1.40
2018-08-31T02:08:37.446Z,1.50
2018-08-31T02:09:37.442Z,1.40
2018-08-31T02:10:37.430Z,1.10
2018-08-31T02:11:37.428Z,1.00
2018-08-31T02:12:37.424Z,1.30
2018-08-31T02:13:37.425Z,1.10
2018-08-31T02:14:37.414Z,1.30
2018-08-31T02:15:37.417Z,1.20
2018-08-31T02:16:37.400Z,0.90
2018-08-31T02:17:37.409Z,1.40
2018-08-31T02:18:37.407Z,1.00
2018-08-31T02:19:37.396Z,1.10
2018-08-31T02:20:37.385Z,1.00
2018-08-31T02:21:37.385Z,1.20
2018-08-31T02:22:37.389Z,1.20
2018-08-31T02:23:37.375Z,1.20
2018-08-31T02:24:37.376Z,1.30
2018-08-31T02:25:37.356Z,1.30
2018-08-31T02:26:37.373Z,1.20
2018-08-31T02:27:37.359Z,1.10
2018-08-31T02:28:37.354Z,1.40
2018-08-31T02:29:37.349Z,1.30
2018-08-31T02:30:37.341Z,1.30
2018-08-31T02:31:37.334Z,1.30
2018-08-31T02:32:37.329Z,1.20
2018-08-31T02:33:37.332Z,1.20
2018-08-31T02:34:37.324Z,0.90
2018-08-31T02:35:37.319Z,1.20
2018-08-31T02:36:37.340Z,1.00
2018-08-31T02:37:37.314Z,1.20
2018-08-31T02:38:37.315Z,1.30
2018-08-31T02:39:37.314Z,1.10
2018-08-31T02:40:37.300Z,1.20
2018-08-31T02:41:37.290Z,1.40
2018-08-31T02:42:37.304Z,1.20
2018-08-31T02:43:37.287Z,1.00
2018-08-31T02:44:37.282Z,1.30
2018-08-31T02:45:37.271Z,1.30
2018-08-31T02:46:37.271Z,1.00
2018-08-31T02:47:37.262Z,1.10
2018-08-31T02:48:37.255Z,1.20
2018-08-31T02:49:37.255Z,1.00
2018-08-31T02:50:37.246Z,1.30
2018-08-31T02:51:37.242Z,1.20
2018-08-31T02:52:37.245Z,1.10
2018-08-31T02:53:37.236Z,1.30
2018-08-31T02:54:37.236Z,1.30
2018-08-31T02:55:37.234Z,1.20
2018-08-31T02:56:37.233Z,1.10
2018-08-31T02:57:37.214Z,1.10
2018-08-31T02:58:37.217Z,1.00
2018-08-31T02:59:37.202Z,1.30
2018-08-31T03:00:37.209Z,1.20
2018-08-31T03:01:37.205Z,1.40
2018-08-31T03:02:37.202Z,1.20
2018-08-31T03:03:37.190Z,1.20
2018-08-31T03:04:37.190Z,1.10
2018-08-31T03:05:37.177Z,1.30
2018-08-31T03:06:37.238Z,1.00
2018-08-31T03:07:37.170Z,1.40
2018-08-31T03:08:37.172Z,1.30
2018-08-31T03:09:37.165Z,0.90
2018-08-31T03:10:37.161Z,1.20
2018-08-31T03:11:37.195Z,1.30
2018-08-31T03:12:37.150Z,1.20
2018-08-31T03:13:37.143Z,1.10
2018-08-31T03:14:37.146Z,1.50
2018-08-31T03:15:37.140Z,1.30
2018-08-31T03:16:37.130Z,1.30
2018-08-31T03:17:37.123Z,0.90
2018-08-31T03:18:37.122Z,1.20
2018-08-31T03:19:37.118Z,1.40
2018-08-31T03:20:37.123Z,1.20
2018-08-31T03:21:37.123Z,1.30
2018-08-31T03:22:37.101Z,1.20
2018-08-31T03:23:37.096Z,1.20
2018-08-31T03:24:37.101Z,1.40
2018-08-31T03:25:37.086Z,1.10
2018-08-31T03:26:37.086Z,1.20
2018-08-31T03:27:37.080Z,1.40
2018-08-31T03:28:37.084Z,1.20
2018-08-31T03:29:37.071Z,1.20
2018-08-31T03:30:37.077Z,1.20
2018-08-31T03:31:37.116Z,0.90
2018-08-31T03:32:37.063Z,1.10
2018-08-31T03:33:37.054Z,1.20
2018-08-31T03:34:37.047Z,1.10
2018-08-31T03:35:37.045Z,1.00
2018-08-31T03:36:37.031Z,1.20
2018-08-31T03:37:37.039Z,1.10
2018-08-31T03:38:37.037Z,1.10
2018-08-31T03:39:37.031Z,1.30
2018-08-31T03:40:37.013Z,1.10
2018-08-31T03:41:37.018Z,1.00
2018-08-31T03:42:37.027Z,1.10
2018-08-31T03:43:37.008Z,1.20
2018-08-31T03:44:37.005Z,1.20
2018-08-31T03:45:36.996Z,1.20
2018-08-31T03:46:36.986Z,1.30
2018-08-31T03:47:36.986Z,1.40
2018-08-31T03:48:36.981Z,1.10
2018-08-31T03:49:36.985Z,1.40
2018-08-31T03:50:36.983Z,1.30
2018-08-31T03:51:36.970Z,1.20
2018-08-31T03:52:36.965Z,1.20
2018-08-31T03:53:36.957Z,1.10
2018-08-31T03:54:36.960Z,1.40
2018-08-31T03:55:36.950Z,1.30
2018-08-31T03:56:36.950Z,1.30
2018-08-31T03:57:36.960Z,1.20
2018-08-31T03:58:36.940Z,1.20
2018-08-31T03:59:36.938Z,1.20
2018-08-31T04:00:36.932Z,1.20
2018-08-31T04:01:36.924Z,1.30
2018-08-31T04:02:36.922Z,1.20
2018-08-31T04:03:36.915Z,1.10
2018-08-31T04:04:36.912Z,1.10
2018-08-31T04:05:36.912Z,1.00
2018-08-31T04:06:36.898Z,1.20
2018-08-31T04:07:36.894Z,1.30
2018-08-31T04:08:36.897Z,1.10
2018-08-31T04:09:36.896Z,1.30
2018-08-31T04:10:36.887Z,1.20
2018-08-31T04:11:36.878Z,1.00
2018-08-31T04:12:36.887Z,1.00
2018-08-31T04:13:36.870Z,1.30
2018-08-31T04:14:36.882Z,1.20
2018-08-31T04:15:36.860Z,1.10
2018-08-31T04:16:36.855Z,1.30
2018-08-31T04:17:36.852Z,1.10
2018-08-31T04:18:36.860Z,1.80
2018-08-31T04:19:36.845Z,1.20
2018-08-31T04:20:36.837Z,1.00
2018-08-31T04:21:36.833Z,1.20
2018-08-31T04:22:36.832Z,1.30
2018-08-31T04:23:36.823Z,1.00
2018-08-31T04:24:36.819Z,1.30
2018-08-31T04:25:36.816Z,1.10
2018-08-31T04:26:36.813Z,1.20
2018-08-31T04:27:36.814Z,1.10
2018-08-31T04:28:36.803Z,1.20
2018-08-31T04:29:36.802Z,1.10
2018-08-31T04:30:36.797Z,1.10
2018-08-31T04:31:36.786Z,1.30
2018-08-31T04:32:36.779Z,1.30
2018-08-31T04:33:36.791Z,1.10
2018-08-31T04:34:36.778Z,0.90
2018-08-31T04:35:36.772Z,1.20
2018-08-31T04:36:36.759Z,1.50
2018-08-31T04:37:36.761Z,1.00
2018-08-31T04:38:36.761Z,1.20
2018-08-31T04:39:36.751Z,1.50
2018-08-31T04:40:36.751Z,0.90
2018-08-31T04:41:36.742Z,1.10
2018-08-31T04:42:36.790Z,1.10
2018-08-31T04:43:36.743Z,1.10
2018-08-31T04:44:36.728Z,1.20
2018-08-31T04:45:36.724Z,1.00
2018-08-31T04:46:36.724Z,1.00
2018-08-31T04:47:36.711Z,1.30
2018-08-31T04:48:36.708Z,1.30
2018-08-31T04:49:36.703Z,1.30
2018-08-31T04:50:36.703Z,1.20
2018-08-31T04:51:36.697Z,1.30
2018-08-31T04:52:36.688Z,1.10
2018-08-31T04:53:36.688Z,1.40
2018-08-31T04:54:36.689Z,1.30
2018-08-31T04:55:36.682Z,1.10
2018-08-31T04:56:36.668Z,1.10
2018-08-31T04:57:36.673Z,1.20
2018-08-31T04:58:36.668Z,1.20
2018-08-31T04:59:36.659Z,1.10
2018-08-31T05:00:36.648Z,1.10
2018-08-31T05:01:36.655Z,1.50
2018-08-31T05:02:36.642Z,1.20
2018-08-31T05:03:36.643Z,1.20
2018-08-31T05:04:36.642Z,1.30
2018-08-31T05:05:36.639Z,1.30
2018-08-31T05:06:36.631Z,1.20
2018-08-31T05:07:36.625Z,1.00
2018-08-31T05:08:36.619Z,1.30
2018-08-31T05:09:36.624Z,1.20
2018-08-31T05:10:36.612Z,1.30
2018-08-31T05:11:36.603Z,1.20
2018-08-31T05:12:36.599Z,1.30
2018-08-31T05:13:36.595Z,1.20
2018-08-31T05:14:36.584Z,1.20
2018-08-31T05:15:36.582Z,1.20
2018-08-31T05:16:36.576Z,1.10
2018-08-31T05:17:36.582Z,1.20
2018-08-31T05:18:36.589Z,1.30
2018-08-31T05:19:36.577Z,1.40
2018-08-31T05:20:36.565Z,1.20
2018-08-31T05:21:36.559Z,1.00
2018-08-31T05:22:36.630Z,1.30
2018-08-31T05:23:36.545Z,1.10
2018-08-31T05:24:36.542Z,1.30
2018-08-31T05:25:36.547Z,1.30
2018-08-31T05:26:36.528Z,1.30
2018-08-31T05:27:36.529Z,1.10
2018-08-31T05:28:36.530Z,1.20
2018-08-31T05:29:36.523Z,1.10
2018-08-31T05:30:36.528Z,1.10
2018-08-31T05:31:36.513Z,1.20
2018-08-31T05:32:36.514Z,1.10
2018-08-31T05:33:36.504Z,1.20
2018-08-31T05:34:36.500Z,1.20
2018-08-31T05:35:36.499Z,1.20
2018-08-31T05:36:36.493Z,1.40
2018-08-31T05:37:36.497Z,1.20
2018-08-31T05:38:36.483Z,1.20
2018-08-31T05:39:36.473Z,1.20
2018-08-31T05:40:36.474Z,1.00
2018-08-31T05:41:36.459Z,1.10
2018-08-31T05:42:36.474Z,1.10
2018-08-31T05:43:36.464Z,1.00
2018-08-31T05:44:36.461Z,1.30
2018-08-31T05:45:36.448Z,1.20
2018-08-31T05:46:36.442Z,1.30
2018-08-31T05:47:36.433Z,1.00
2018-08-31T05:48:36.437Z,1.10
2018-08-31T05:49:36.433Z,1.20
2018-08-31T05:50:36.428Z,1.30
2018-08-31T05:51:36.415Z,0.90
2018-08-31T05:52:36.418Z,1.20
2018-08-31T05:53:36.422Z,1.00
2018-08-31T05:54:36.425Z,1.30
2018-08-31T05:55:36.405Z,1.20
2018-08-31T05:56:36.403Z,1.20
2018-08-31T05:57:36.403Z,1.10
2018-08-31T05:58:36.384Z,1.20
2018-08-31T05:59:36.389Z,1.00
2018-08-31T06:00:36.388Z,1.10
2018-08-31T06:01:36.437Z,1.10
2018-08-31T06:02:36.376Z,1.30
2018-08-31T06:03:36.375Z,1.10
2018-08-31T06:04:36.374Z,1.30
2018-08-31T06:05:36.354Z,1.20
2018-08-31T06:06:36.359Z,1.20
2018-08-31T06:07:36.345Z,1.30
2018-08-31T06:08:36.347Z,1.40
2018-08-31T06:09:36.345Z,1.20
2018-08-31T06:10:36.329Z,1.10
2018-08-31T06:11:36.330Z,1.10
2018-08-31T06:12:36.322Z,1.10
2018-08-31T06:13:36.318Z,1.20
2018-08-31T06:14:36.309Z,1.40
2018-08-31T06:15:36.313Z,1.10
2018-08-31T06:16:36.299Z,1.20
2018-08-31T06:17:36.305Z,1.20
2018-08-31T06:18:36.298Z,1.30
2018-08-31T06:19:36.296Z,1.30
2018-08-31T06:20:36.306Z,1.20
2018-08-31T06:21:36.275Z,1.30
2018-08-31T06:22:36.283Z,1.50
2018-08-31T06:23:36.274Z,1.30
2018-08-31T06:24:36.289Z,3.70
2018-08-31T06:25:36.258Z,3.10
2018-08-31T06:26:36.261Z,3.30
2018-08-31T06:27:36.253Z,1.20
2018-08-31T06:28:36.253Z,2.70
2018-08-31T06:29:36.247Z,1.50
2018-08-31T06:30:36.244Z,1.60
2018-08-31T06:31:36.243Z,1.80
2018-08-31T06:32:36.258Z,2.30
2018-08-31T06:33:36.229Z,1.30
2018-08-31T06:34:36.224Z,1.30
2018-08-31T06:35:36.205Z,1.80
2018-08-31T06:36:36.208Z,1.50
2018-08-31T06:37:36.210Z,1.70
2018-08-31T06:38:36.208Z,3.70
2018-08-31T06:39:36.196Z,3.00
2018-08-31T06:40:36.246Z,1.80
2018-08-31T06:41:36.180Z,1.80
2018-08-31T06:42:36.188Z,2.80
2018-08-31T06:43:36.179Z,2.90
2018-08-31T06:44:36.179Z,1.80
2018-08-31T06:45:36.173Z,2.10
2018-08-31T06:46:36.170Z,2.80
2018-08-31T06:47:36.160Z,2.50
2018-08-31T06:48:36.154Z,2.10
2018-08-31T06:49:36.155Z,3.10
2018-08-31T06:50:36.150Z,4.10
2018-08-31T06:51:36.220Z,2.80
2018-08-31T06:52:36.136Z,3.00
2018-08-31T06:53:36.131Z,3.50
2018-08-31T06:54:36.127Z,3.20
2018-08-31T06:55:36.126Z,3.00
2018-08-31T06:56:36.127Z,2.50
2018-08-31T06:57:36.121Z,2.60
2018-08-31T06:58:36.108Z,5.60
2018-08-31T06:59:36.109Z,3.50
2018-08-31T07:00:36.103Z,4.60
2018-08-31T07:01:36.094Z,5.30
2018-08-31T07:02:36.090Z,2.40
2018-08-31T07:03:36.096Z,2.50
2018-08-31T07:04:36.090Z,2.70
2018-08-31T07:05:36.087Z,3.30
2018-08-31T07:06:36.071Z,2.60
2018-08-31T07:07:36.084Z,3.00
2018-08-31T07:08:36.066Z,2.70
2018-08-31T07:09:36.059Z,2.30
2018-08-31T07:10:36.059Z,3.10
2018-08-31T07:11:36.045Z,2.40
2018-08-31T07:12:36.057Z,2.70
2018-08-31T07:13:36.041Z,3.00
2018-08-31T07:14:36.044Z,7.00
2018-08-31T07:15:36.044Z,6.40
2018-08-31T07:16:36.026Z,4.20
2018-08-31T07:17:36.025Z,5.20
2018-08-31T07:18:36.020Z,3.40
2018-08-31T07:19:36.026Z,4.00
2018-08-31T07:20:36.015Z,4.20
2018-08-31T07:21:36.015Z,2.50
2018-08-31T07:22:36.005Z,3.20
2018-08-31T07:23:36.011Z,2.90
2018-08-31T07:24:35.999Z,3.70
2018-08-31T07:25:35.982Z,3.10
2018-08-31T07:26:36.002Z,2.90
2018-08-31T07:27:35.980Z,3.30
2018-08-31T07:28:35.984Z,2.90
2018-08-31T07:29:35.975Z,2.70
2018-08-31T07:30:35.969Z,2.50
2018-08-31T07:31:35.972Z,2.80
2018-08-31T07:32:36.007Z,2.00
2018-08-31T07:33:35.979Z,2.90
2018-08-31T07:34:35.951Z,2.10
2018-08-31T07:35:35.951Z,2.20
2018-08-31T07:36:35.951Z,3.50
2018-08-31T07:37:35.936Z,2.60
2018-08-31T07:38:35.933Z,2.40
2018-08-31T07:39:35.926Z,3.00
2018-08-31T07:40:35.915Z,1.60
2018-08-31T07:41:35.926Z,3.20
2018-08-31T07:42:35.927Z,2.40
2018-08-31T07:43:35.909Z,3.00
2018-08-31T07:44:35.902Z,2.60
2018-08-31T07:45:35.907Z,1.70
2018-08-31T07:46:35.942Z,2.40
2018-08-31T07:47:35.901Z,3.70
2018-08-31T07:48:35.885Z,2.30
2018-08-31T07:49:35.885Z,2.80
2018-08-31T07:50:35.883Z,2.60
2018-08-31T07:51:35.874Z,1.40
2018-08-31T07:52:35.875Z,2.80
2018-08-31T07:53:35.871Z,2.80
2018-08-31T07:54:35.865Z,2.10
2018-08-31T07:55:35.854Z,1.60
2018-08-31T07:56:35.851Z,2.20
2018-08-31T07:57:35.855Z,4.00
2018-08-31T07:58:35.846Z,1.50
2018-08-31T07:59:35.847Z,2.30
2018-08-31T08:00:35.834Z,3.30
2018-08-31T08:01:35.827Z,1.80
2018-08-31T08:02:35.835Z,1.70
2018-08-31T08:03:35.822Z,1.90
2018-08-31T08:04:35.811Z,2.90
2018-08-31T08:05:35.920Z,2.50
2018-08-31T08:06:35.815Z,2.00
2018-08-31T08:07:35.895Z,3.70
2018-08-31T08:08:35.802Z,2.40
2018-08-31T08:09:35.802Z,1.90
2018-08-31T08:10:35.796Z,2.50
2018-08-31T08:11:35.792Z,2.30
2018-08-31T08:12:35.785Z,2.40
2018-08-31T08:13:35.784Z,1.70
2018-08-31T08:14:35.793Z,2.30
2018-08-31T08:15:35.757Z,2.30
2018-08-31T08:16:35.767Z,2.50
2018-08-31T08:17:35.777Z,2.20
2018-08-31T08:18:35.751Z,2.10
2018-08-31T08:19:35.815Z,2.30
2018-08-31T08:20:35.741Z,1.60
2018-08-31T08:21:35.742Z,2.10
2018-08-31T08:22:35.751Z,3.30
2018-08-31T08:23:35.733Z,2.10
2018-08-31T08:24:35.736Z,3.20
2018-08-31T08:25:35.722Z,1.90
2018-08-31T08:26:35.717Z,2.30
2018-08-31T08:27:35.727Z,2.50
2018-08-31T08:28:35.707Z,1.70
2018-08-31T08:29:35.713Z,2.60
2018-08-31T08:30:35.710Z,2.40
2018-08-31T08:31:35.691Z,2.90
2018-08-31T08:32:35.697Z,2.20
2018-08-31T08:33:35.687Z,2.40
2018-08-31T08:34:35.683Z,3.00
2018-08-31T08:35:35.673Z,3.30
2018-08-31T08:36:35.673Z,1.90
2018-08-31T08:37:35.663Z,2.50
2018-08-31T08:38:35.658Z,2.50
2018-08-31T08:39:35.664Z,2.90
2018-08-31T08:40:35.654Z,2.20
2018-08-31T08:41:35.647Z,2.40
2018-08-31T08:42:35.678Z,2.20
2018-08-31T08:43:35.641Z,2.30
2018-08-31T08:44:35.647Z,3.00
2018-08-31T08:45:35.633Z,2.10
2018-08-31T08:46:35.631Z,2.00
2018-08-31T08:47:35.636Z,2.30
2018-08-31T08:48:35.764Z,2.60
2018-08-31T08:49:35.617Z,2.30
2018-08-31T08:50:35.618Z,2.70
2018-08-31T08:51:35.608Z,2.20
2018-08-31T08:52:35.593Z,2.90
2018-08-31T08:53:35.591Z,2.50
2018-08-31T08:54:35.588Z,2.00
2018-08-31T08:55:35.591Z,2.00
2018-08-31T08:56:35.579Z,3.30
2018-08-31T08:57:35.573Z,2.10
2018-08-31T08:58:35.572Z,1.80
2018-08-31T08:59:35.561Z,2.40
2018-08-31T09:00:35.563Z,2.70
2018-08-31T09:01:35.573Z,2.60
2018-08-31T09:02:35.554Z,2.20
2018-08-31T09:03:35.568Z,2.00
2018-08-31T09:04:35.543Z,2.40
2018-08-31T09:05:35.602Z,2.80
2018-08-31T09:06:35.534Z,2.30
2018-08-31T09:07:35.538Z,2.00
2018-08-31T09:08:35.546Z,2.00
2018-08-31T09:09:35.522Z,2.40
2018-08-31T09:10:35.529Z,2.50
2018-08-31T09:11:35.515Z,1.70
2018-08-31T09:12:35.511Z,2.20
2018-08-31T09:13:35.503Z,1.90
2018-08-31T09:14:35.508Z,2.70
2018-08-31T09:15:35.527Z,2.70
2018-08-31T09:16:35.492Z,2.50
2018-08-31T09:17:35.492Z,2.50
2018-08-31T09:18:35.554Z,2.00
2018-08-31T09:19:35.494Z,2.90
2018-08-31T09:20:35.472Z,2.10
2018-08-31T09:21:35.474Z,3.10
2018-08-31T09:22:35.467Z,2.20
2018-08-31T09:23:35.461Z,2.50
2018-08-31T09:24:35.495Z,2.80
2018-08-31T09:25:35.479Z,2.00
2018-08-31T09:26:35.457Z,2.30
2018-08-31T09:27:35.443Z,2.70
2018-08-31T09:28:35.452Z,2.40
2018-08-31T09:29:35.443Z,2.10
2018-08-31T09:30:35.436Z,2.50
2018-08-31T09:31:35.428Z,2.00
2018-08-31T09:32:35.473Z,2.10
2018-08-31T09:33:35.427Z,2.50
2018-08-31T09:34:35.416Z,3.10
2018-08-31T09:35:35.422Z,2.60
2018-08-31T09:36:35.406Z,3.50
2018-08-31T09:37:35.396Z,2.80
2018-08-31T09:38:35.397Z,2.40
2018-08-31T09:39:35.393Z,2.90
2018-08-31T09:40:35.386Z,2.60
2018-08-31T09:41:35.398Z,3.00
2018-08-31T09:42:35.385Z,2.10
2018-08-31T09:43:35.377Z,2.60
2018-08-31T09:44:35.382Z,2.00
2018-08-31T09:45:35.363Z,2.00
2018-08-31T09:46:35.361Z,2.30
2018-08-31T09:47:35.359Z,2.40
2018-08-31T09:48:35.353Z,2.20
2018-08-31T09:49:35.404Z,2.90
2018-08-31T09:50:35.338Z,2.10
2018-08-31T09:51:35.341Z,2.70
2018-08-31T09:52:35.339Z,2.40
2018-08-31T09:53:35.328Z,2.70
2018-08-31T09:54:35.332Z,2.20
2018-08-31T09:55:35.323Z,2.40
2018-08-31T09:56:35.309Z,2.50
2018-08-31T09:57:35.357Z,3.30
2018-08-31T09:58:35.314Z,2.30
2018-08-31T09:59:35.308Z,2.20
2018-08-31T10:00:35.328Z,2.30
2018-08-31T10:01:35.302Z,2.70
2018-08-31T10:02:35.297Z,3.70
2018-08-31T10:03:35.313Z,3.10
2018-08-31T10:04:35.292Z,2.90
2018-08-31T10:05:35.278Z,3.00
2018-08-31T10:06:35.271Z,3.00
2018-08-31T10:07:35.268Z,2.40
2018-08-31T10:08:35.277Z,2.90
2018-08-31T10:09:35.259Z,2.50
2018-08-31T10:10:35.272Z,2.90
2018-08-31T10:11:35.250Z,2.90
2018-08-31T10:12:35.244Z,3.20
2018-08-31T10:13:35.247Z,3.10
2018-08-31T10:14:35.243Z,3.40
2018-08-31T10:15:35.238Z,3.30
2018-08-31T10:16:35.234Z,2.90
2018-08-31T10:17:35.232Z,2.60
2018-08-31T10:18:35.277Z,2.70
2018-08-31T10:19:35.213Z,2.70
2018-08-31T10:20:35.223Z,3.10
2018-08-31T10:21:35.208Z,2.90
2018-08-31T10:22:35.202Z,2.20
2018-08-31T10:23:35.190Z,2.70
2018-08-31T10:24:35.194Z,3.20
2018-08-31T10:25:35.192Z,2.50
2018-08-31T10:26:35.184Z,2.70
2018-08-31T10:27:35.183Z,2.40
2018-08-31T10:28:35.173Z,2.70
2018-08-31T10:29:35.181Z,3.20
2018-08-31T10:30:35.177Z,3.00
2018-08-31T10:31:35.155Z,2.60
2018-08-31T10:32:35.157Z,2.90
2018-08-31T10:33:35.168Z,2.90
2018-08-31T10:34:35.149Z,2.50
2018-08-31T10:35:35.143Z,2.50
2018-08-31T10:36:35.139Z,2.50
2018-08-31T10:37:35.129Z,2.70
2018-08-31T10:38:35.134Z,3.00
2018-08-31T10:39:35.129Z,2.40
2018-08-31T10:40:35.127Z,2.30
2018-08-31T10:41:35.117Z,2.60
2018-08-31T10:42:35.109Z,3.10
2018-08-31T10:43:35.110Z,2.30
2018-08-31T10:44:35.107Z,2.70
2018-08-31T10:45:35.112Z,2.70
2018-08-31T10:46:35.160Z,2.60
2018-08-31T10:47:35.109Z,2.20
2018-08-31T10:48:35.099Z,2.30
2018-08-31T10:49:35.080Z,2.50
2018-08-31T10:50:35.078Z,3.20
2018-08-31T10:51:35.075Z,2.70
2018-08-31T10:52:35.069Z,2.80
2018-08-31T10:53:35.078Z,3.00
2018-08-31T10:54:35.065Z,2.60
2018-08-31T10:55:35.064Z,2.30
2018-08-31T10:56:35.044Z,2.40
2018-08-31T10:57:35.052Z,2.80
2018-08-31T10:58:35.040Z,2.40
2018-08-31T10:59:35.081Z,2.70
2018-08-31T11:00:35.033Z,2.80
2018-08-31T11:01:35.038Z,2.60
2018-08-31T11:02:35.025Z,2.40
2018-08-31T11:03:35.042Z,2.20
2018-08-31T11:04:35.025Z,2.10
2018-08-31T11:05:35.010Z,2.50
2018-08-31T11:06:35.016Z,2.40
2018-08-31T11:07:34.999Z,2.60
2018-08-31T11:08:35.006Z,2.30
2018-08-31T11:09:35.004Z,2.70
2018-08-31T11:10:35.004Z,2.10
2018-08-31T11:11:35.053Z,2.60
2018-08-31T11:12:34.995Z,2.00
2018-08-31T11:13:34.977Z,2.50
2018-08-31T11:14:34.976Z,3.60
2018-08-31T11:15:34.970Z,2.70
2018-08-31T11:16:34.960Z,2.00
2018-08-31T11:17:34.967Z,2.60
2018-08-31T11:18:34.960Z,2.40
2018-08-31T11:19:34.964Z,2.00
2018-08-31T11:20:34.949Z,2.30
2018-08-31T11:21:34.939Z,2.70
2018-08-31T11:22:34.944Z,2.60
2018-08-31T11:23:34.960Z,2.60
2018-08-31T11:24:34.935Z,2.50
2018-08-31T11:25:34.915Z,2.50
2018-08-31T11:26:34.923Z,2.40
2018-08-31T11:27:34.981Z,2.50
2018-08-31T11:28:34.919Z,3.20
2018-08-31T11:29:34.911Z,2.50
2018-08-31T11:30:34.895Z,2.30
2018-08-31T11:31:34.897Z,2.30
2018-08-31T11:32:34.939Z,2.50
2018-08-31T11:33:34.890Z,2.00
2018-08-31T11:34:34.900Z,2.20
2018-08-31T11:35:34.880Z,2.60
2018-08-31T11:36:34.876Z,2.80
2018-08-31T11:37:34.879Z,2.40
2018-08-31T11:38:34.869Z,2.30
2018-08-31T11:39:34.864Z,2.50
2018-08-31T11:40:34.863Z,3.00
2018-08-31T11:41:34.863Z,2.60
2018-08-31T11:42:34.845Z,2.90
2018-08-31T11:43:34.981Z,1.90
2018-08-31T11:44:34.854Z,2.70
2018-08-31T11:45:34.840Z,2.50
2018-08-31T11:46:34.835Z,2.20
2018-08-31T11:47:34.830Z,2.40
2018-08-31T11:48:34.834Z,2.90
2018-08-31T11:49:34.819Z,2.50
2018-08-31T11:50:34.811Z,2.50
2018-08-31T11:51:34.811Z,2.40
2018-08-31T11:52:34.808Z,2.20
2018-08-31T11:53:34.826Z,2.40
2018-08-31T11:54:34.802Z,2.00
2018-08-31T11:55:34.798Z,2.20
2018-08-31T11:56:34.784Z,2.50
2018-08-31T11:57:34.779Z,2.20
2018-08-31T11:58:34.780Z,2.30
2018-08-31T11:59:34.769Z,2.30
2018-08-31T12:00:34.774Z,2.20
2018-08-31T12:01:34.831Z,2.60
2018-08-31T12:02:34.766Z,2.30
2018-08-31T12:03:34.766Z,2.50
2018-08-31T12:04:34.764Z,2.60
2018-08-31T12:05:34.761Z,2.70
2018-08-31T12:06:34.750Z,2.90
2018-08-31T12:07:34.744Z,2.10
2018-08-31T12:08:34.742Z,3.00
2018-08-31T12:09:34.726Z,2.50
2018-08-31T12:10:34.732Z,2.10
2018-08-31T12:11:34.720Z,1.90
2018-08-31T12:12:34.726Z,2.50
2018-08-31T12:13:34.740Z,2.30
2018-08-31T12:14:34.739Z,2.40
2018-08-31T12:15:34.704Z,2.80
2018-08-31T12:16:34.702Z,2.20
2018-08-31T12:17:34.695Z,2.10
2018-08-31T12:18:34.694Z,2.20
2018-08-31T12:19:34.685Z,2.20
2018-08-31T12:20:34.692Z,2.20
2018-08-31T12:21:34.676Z,2.50
2018-08-31T12:22:34.671Z,2.00
2018-08-31T12:23:34.672Z,2.50
2018-08-31T12:24:34.669Z,2.30
2018-08-31T12:25:34.674Z,2.30
2018-08-31T12:26:34.684Z,2.70
2018-08-31T12:27:34.651Z,1.90
2018-08-31T12:28:34.662Z,2.80
2018-08-31T12:29:34.637Z,2.90
2018-08-31T12:30:34.641Z,2.20
2018-08-31T12:31:34.640Z,2.10
2018-08-31T12:32:34.636Z,2.50
2018-08-31T12:33:34.635Z,1.90
2018-08-31T12:34:34.632Z,1.90
2018-08-31T12:35:34.620Z,2.10
2018-08-31T12:36:34.616Z,2.30
2018-08-31T12:37:34.605Z,2.20
2018-08-31T12:38:34.609Z,2.30
2018-08-31T12:39:34.606Z,2.10
2018-08-31T12:40:34.594Z,2.60
2018-08-31T12:41:34.582Z,2.70
2018-08-31T12:42:34.599Z,3.30
2018-08-31T12:43:34.581Z,4.70
2018-08-31T12:44:34.573Z,2.70
2018-08-31T12:45:34.570Z,4.20
2018-08-31T12:46:34.566Z,2.80
2018-08-31T12:47:34.575Z,2.70
2018-08-31T12:48:34.555Z,2.30
2018-08-31T12:49:34.554Z,5.10
2018-08-31T12:50:34.551Z,2.90
2018-08-31T12:51:34.536Z,4.50
2018-08-31T12:52:34.548Z,2.60
2018-08-31T12:53:34.550Z,3.30
2018-08-31T12:54:34.648Z,4.10
2018-08-31T12:55:34.527Z,3.70
2018-08-31T12:56:34.549Z,4.60
2018-08-31T12:57:34.526Z,4.50
2018-08-31T12:58:34.522Z,2.30
2018-08-31T12:59:34.513Z,3.30
2018-08-31T13:00:34.510Z,2.60
2018-08-31T13:01:34.507Z,3.00
2018-08-31T13:02:34.521Z,3.10
2018-08-31T13:03:34.496Z,2.10
2018-08-31T13:04:34.497Z,3.20
2018-08-31T13:05:34.491Z,2.40
2018-08-31T13:06:34.476Z,2.30
2018-08-31T13:07:34.472Z,3.10
2018-08-31T13:08:34.485Z,3.10
2018-08-31T13:09:34.481Z,2.80
2018-08-31T13:10:34.484Z,2.50
2018-08-31T13:11:34.457Z,3.10
2018-08-31T13:12:34.452Z,2.00
2018-08-31T13:13:34.497Z,4.70
2018-08-31T13:14:34.452Z,2.50
2018-08-31T13:15:34.436Z,3.30
2018-08-31T13:16:34.452Z,2.40
2018-08-31T13:17:34.443Z,2.70
2018-08-31T13:18:34.423Z,2.50